createdAt,value
2023-01-29T00:02:46.679Z,29.70
2023-01-29T00:05:49.753Z,29.90
2023-01-29T00:08:52.698Z,18.70
2023-01-29T00:11:55.573Z,30.40
2023-01-29T00:14:58.566Z,33.60
2023-01-29T00:18:01.482Z,32.80
2023-01-29T00:21:04.494Z,41.90
2023-01-29T00:24:07.582Z,43.10
2023-01-29T00:27:11.212Z,23.40
2023-01-29T00:30:16.532Z,24.20
2023-01-29T00:33:19.516Z,29.80
2023-01-29T00:36:23.396Z,14.30
2023-01-29T00:39:31.380Z,29.30
2023-01-29T00:42:58.041Z,17.10
2023-01-29T00:46:01.155Z,34.40
2023-01-29T00:49:06.072Z,27.60
2023-01-29T00:52:24.259Z,28.20
2023-01-29T00:55:27.345Z,28.80
2023-01-29T00:58:34.293Z,22.00
2023-01-29T01:04:59.075Z,32.40
2023-01-29T01:08:02.154Z,11.90
2023-01-29T01:11:06.938Z,24.80
2023-01-29T01:14:09.834Z,18.70
2023-01-29T01:17:12.809Z,27.10
2023-01-29T01:20:16.182Z,14.00
2023-01-29T01:23:20.257Z,34.50
2023-01-29T01:26:23.346Z,12.50
2023-01-29T01:29:26.257Z,21.80
2023-01-29T01:32:29.216Z,13.80
2023-01-29T01:35:32.110Z,10.10
2023-01-29T01:38:36.490Z,19.70
2023-01-29T01:41:39.419Z,8.90
2023-01-29T01:44:58.812Z,10.30
2023-01-29T01:48:09.143Z,9.70
2023-01-29T01:51:12.448Z,8.40
2023-01-29T01:54:21.366Z,9.50
2023-01-29T01:57:26.439Z,19.40
2023-01-29T02:00:29.467Z,5.50
2023-01-29T02:03:56.407Z,16.00
2023-01-29T02:07:21.612Z,22.60
2023-01-29T02:10:24.762Z,15.00
2023-01-29T02:13:27.694Z,8.30
2023-01-29T02:16:30.911Z,13.10
2023-01-29T02:19:52.698Z,8.90
2023-01-29T02:22:56.325Z,6.40
2023-01-29T02:26:20.720Z,11.10
2023-01-29T02:29:28.937Z,5.40
2023-01-29T02:32:54.455Z,6.00
2023-01-29T02:36:13.334Z,8.70
2023-01-29T02:39:34.219Z,8.10
2023-01-29T02:43:02.313Z,9.50
2023-01-29T02:46:17.704Z,7.40
2023-01-29T02:49:47.355Z,9.60
2023-01-29T02:53:06.491Z,14.80
2023-01-29T02:56:37.142Z,12.90
2023-01-29T02:59:46.329Z,13.70
2023-01-29T03:02:59.435Z,12.20
2023-01-29T03:06:07.716Z,7.50
2023-01-29T03:09:24.682Z,5.30
2023-01-29T03:12:36.929Z,10.00
2023-01-29T03:15:47.483Z,8.10
2023-01-29T03:18:57.089Z,8.50
2023-01-29T03:22:04.334Z,10.10
2023-01-29T03:25:28.839Z,6.10
2023-01-29T03:28:51.935Z,9.40
2023-01-29T03:32:08.546Z,9.70
2023-01-29T03:35:21.102Z,7.40
2023-01-29T03:38:29.698Z,8.20
2023-01-29T03:41:38.080Z,10.30
2023-01-29T03:45:12.410Z,9.90
2023-01-29T03:48:40.189Z,8.50
2023-01-29T03:51:55.823Z,6.60
2023-01-29T03:55:20.542Z,12.80
2023-01-29T03:58:29.789Z,12.20
2023-01-29T04:01:41.965Z,14.60
2023-01-29T04:04:50.278Z,14.40
2023-01-29T04:08:00.887Z,14.20
2023-01-29T04:11:12.084Z,12.50
2023-01-29T04:14:15.559Z,14.70
2023-01-29T04:17:23.786Z,9.20
2023-01-29T04:20:27.091Z,12.50
2023-01-29T04:23:29.927Z,11.50
2023-01-29T04:26:58.176Z,11.10
2023-01-29T04:30:05.493Z,11.30
2023-01-29T04:33:21.911Z,9.60
2023-01-29T04:36:49.435Z,4.70
2023-01-29T04:40:04.415Z,8.00
2023-01-29T04:43:14.435Z,9.40
2023-01-29T04:46:23.493Z,5.60
2023-01-29T04:49:38.576Z,11.30
2023-01-29T04:53:04.518Z,13.20
2023-01-29T04:56:21.726Z,8.40
2023-01-29T04:59:36.215Z,11.20
2023-01-29T05:02:41.717Z,12.00
2023-01-29T05:05:48.214Z,6.60
2023-01-29T05:08:51.774Z,3.70
2023-01-29T05:11:56.015Z,20.50
2023-01-29T05:15:02.163Z,9.70
2023-01-29T05:18:09.232Z,9.90
2023-01-29T05:21:12.320Z,7.60
2023-01-29T05:24:21.895Z,6.70
2023-01-29T05:27:53.275Z,8.50
2023-01-29T05:30:57.438Z,10.60
2023-01-29T05:34:00.404Z,13.60
2023-01-29T05:37:03.326Z,8.00
2023-01-29T05:40:08.895Z,7.60
2023-01-29T05:43:23.910Z,8.20
2023-01-29T05:46:26.829Z,7.10
2023-01-29T05:49:29.737Z,7.10
2023-01-29T05:52:32.761Z,4.40
2023-01-29T05:55:35.732Z,5.80
2023-01-29T05:58:38.801Z,7.50
2023-01-29T06:01:41.940Z,5.80
2023-01-29T06:04:44.872Z,4.20
2023-01-29T06:07:47.839Z,3.90
2023-01-29T06:10:50.708Z,3.30
2023-01-29T06:13:53.933Z,4.70
2023-01-29T06:16:56.809Z,7.30
2023-01-29T06:19:59.703Z,5.40
2023-01-29T06:23:02.829Z,7.10
2023-01-29T06:26:08.094Z,4.80
2023-01-29T06:29:10.998Z,6.60
2023-01-29T06:32:14.041Z,9.50
2023-01-29T06:35:16.985Z,5.90
2023-01-29T06:38:19.927Z,23.30
2023-01-29T06:41:25.584Z,17.40
2023-01-29T06:44:28.915Z,5.20
2023-01-29T06:47:31.961Z,5.00
2023-01-29T06:50:34.905Z,7.00
2023-01-29T06:53:38.979Z,9.70
2023-01-29T06:56:41.912Z,41.80
2023-01-29T06:59:44.887Z,67.10
2023-01-29T07:02:51.044Z,25.90
2023-01-29T07:05:53.947Z,4.70
2023-01-29T07:08:56.988Z,8.60
2023-01-29T07:11:59.831Z,14.80
2023-01-29T07:15:02.877Z,13.90
2023-01-29T07:18:12.254Z,8.60
2023-01-29T07:21:15.396Z,5.80
2023-01-29T07:24:19.260Z,4.80
2023-01-29T07:27:22.197Z,6.80
2023-01-29T07:30:25.123Z,7.10
2023-01-29T07:33:28.037Z,9.60
2023-01-29T07:36:31.046Z,4.10
2023-01-29T07:39:34.020Z,3.40
2023-01-29T07:42:42.276Z,6.60
2023-01-29T07:45:45.276Z,10.20
2023-01-29T07:48:48.194Z,6.00
2023-01-29T07:51:51.082Z,7.90
2023-01-29T07:54:54.201Z,4.80
2023-01-29T07:58:02.301Z,6.10
2023-01-29T08:01:07.778Z,6.30
2023-01-29T08:04:10.911Z,8.10
2023-01-29T08:07:14.077Z,10.60
2023-01-29T08:10:17.573Z,12.10
2023-01-29T08:13:20.827Z,10.10
2023-01-29T08:16:23.839Z,12.90
2023-01-29T08:19:26.722Z,9.40
2023-01-29T08:22:29.586Z,13.30
2023-01-29T08:25:33.308Z,10.70
2023-01-29T08:28:38.716Z,7.40
2023-01-29T08:31:41.708Z,9.20
2023-01-29T08:34:44.660Z,11.10
2023-01-29T08:37:59.535Z,24.20
2023-01-29T08:41:02.585Z,13.30
2023-01-29T08:44:05.715Z,14.90
2023-01-29T08:47:08.612Z,12.80
2023-01-29T08:50:11.839Z,10.60
2023-01-29T08:53:14.716Z,11.80
2023-01-29T08:56:17.671Z,25.70
2023-01-29T08:59:22.965Z,17.20
2023-01-29T09:02:25.901Z,15.70
2023-01-29T09:05:29.267Z,11.80
2023-01-29T09:08:32.099Z,6.50
2023-01-29T09:11:34.926Z,11.80
2023-01-29T09:14:37.778Z,22.90
2023-01-29T09:17:41.221Z,15.20
2023-01-29T09:20:44.083Z,7.90
2023-01-29T09:23:46.982Z,4.40
2023-01-29T09:26:49.966Z,8.60
2023-01-29T09:29:52.870Z,7.50
2023-01-29T09:32:55.766Z,7.20
2023-01-29T09:35:58.634Z,7.40
2023-01-29T09:39:01.504Z,3.90
2023-01-29T09:42:20.976Z,9.60
2023-01-29T09:45:26.772Z,8.90
2023-01-29T09:48:33.680Z,7.20
2023-01-29T09:51:48.018Z,6.10
2023-01-29T09:55:00.238Z,8.60
2023-01-29T09:58:12.189Z,8.30
2023-01-29T10:01:40.818Z,10.00
2023-01-29T10:05:11.037Z,6.10
2023-01-29T10:08:29.069Z,8.20
2023-01-29T10:11:58.101Z,10.50
2023-01-29T10:15:25.189Z,8.70
2023-01-29T10:18:49.147Z,8.40
2023-01-29T10:22:29.592Z,8.60
2023-01-29T10:25:36.877Z,13.30
2023-01-29T10:28:47.711Z,11.80
2023-01-29T10:31:57.022Z,5.40
2023-01-29T10:35:22.092Z,7.70
2023-01-29T10:38:38.531Z,7.90
2023-01-29T10:41:47.584Z,5.70
2023-01-29T10:45:00.794Z,7.30
2023-01-29T10:48:44.245Z,7.40
2023-01-29T10:52:05.600Z,7.40
2023-01-29T10:55:27.522Z,8.50
2023-01-29T10:58:34.342Z,5.70
2023-01-29T11:01:37.347Z,8.70
2023-01-29T11:04:40.433Z,8.00
2023-01-29T11:07:43.795Z,8.20
2023-01-29T11:10:55.219Z,7.10
2023-01-29T11:14:07.168Z,9.50
2023-01-29T11:17:22.984Z,6.50
2023-01-29T11:20:28.088Z,4.70
2023-01-29T11:23:33.339Z,6.00
2023-01-29T11:26:40.735Z,3.40
2023-01-29T11:29:46.285Z,7.00
2023-01-29T11:32:56.912Z,4.70
2023-01-29T11:36:01.067Z,6.40
2023-01-29T11:39:20.776Z,5.90
2023-01-29T11:42:24.018Z,6.00
2023-01-29T11:45:32.359Z,7.60
2023-01-29T11:48:50.339Z,9.40
2023-01-29T11:51:56.291Z,7.60
2023-01-29T11:55:03.841Z,7.70
2023-01-29T11:58:12.628Z,6.40
2023-01-29T12:01:19.242Z,6.00
2023-01-29T12:04:26.245Z,7.30
2023-01-29T12:07:30.642Z,6.10
2023-01-29T12:10:39.114Z,6.60
2023-01-29T12:13:45.723Z,6.60
2023-01-29T12:16:54.576Z,6.10
2023-01-29T12:20:06.842Z,5.60
2023-01-29T12:23:42.109Z,6.70
2023-01-29T12:26:52.036Z,4.10
2023-01-29T12:30:17.859Z,7.50
2023-01-29T12:33:20.838Z,9.40
2023-01-29T12:36:47.227Z,9.10
2023-01-29T12:39:52.171Z,7.10
2023-01-29T12:43:02.808Z,3.20
2023-01-29T12:46:14.436Z,9.00
2023-01-29T12:49:33.313Z,7.20
2023-01-29T12:52:47.686Z,7.80
2023-01-29T12:56:00.105Z,7.50
2023-01-29T13:02:27.334Z,9.60
2023-01-29T13:05:36.305Z,5.10
2023-01-29T13:08:45.341Z,9.30
2023-01-29T13:12:00.744Z,12.50
2023-01-29T13:15:29.393Z,6.30
2023-01-29T13:18:54.113Z,3.80
2023-01-29T13:22:01.304Z,7.50
2023-01-29T13:25:05.772Z,3.70
2023-01-29T13:28:18.909Z,6.10
2023-01-29T13:31:31.853Z,7.20
2023-01-29T13:34:43.637Z,6.70
2023-01-29T13:37:53.947Z,7.00
2023-01-29T13:41:03.223Z,6.50
2023-01-29T13:44:09.642Z,8.10
2023-01-29T13:47:22.402Z,7.70
2023-01-29T13:50:35.037Z,9.30
2023-01-29T13:56:49.994Z,9.30
2023-01-29T13:59:55.427Z,4.20
2023-01-29T14:03:13.459Z,8.50
2023-01-29T14:06:41.940Z,5.80
2023-01-29T14:09:44.784Z,5.00
2023-01-29T14:12:49.949Z,2.60
2023-01-29T14:15:58.834Z,5.50
2023-01-29T14:19:04.360Z,9.40
2023-01-29T14:22:07.344Z,8.50
2023-01-29T14:25:19.518Z,7.40
2023-01-29T14:28:52.524Z,8.20
2023-01-29T14:32:00.939Z,6.80
2023-01-29T14:35:18.160Z,9.20
2023-01-29T14:38:24.992Z,6.90
2023-01-29T14:41:34.240Z,6.70
2023-01-29T14:44:47.170Z,7.70
2023-01-29T14:47:50.029Z,8.90
2023-01-29T14:50:59.275Z,9.70
2023-01-29T14:54:12.124Z,9.00
2023-01-29T14:57:18.204Z,14.10
2023-01-29T15:00:29.372Z,7.90
2023-01-29T15:03:52.638Z,12.70
2023-01-29T15:07:11.421Z,9.10
2023-01-29T15:10:23.475Z,11.40
2023-01-29T15:13:53.988Z,5.80
2023-01-29T15:17:09.610Z,9.30
2023-01-29T15:20:41.656Z,13.60
2023-01-29T15:23:46.022Z,19.70
2023-01-29T15:26:49.095Z,13.40
2023-01-29T15:30:02.368Z,13.60
2023-01-29T15:33:10.605Z,14.70
2023-01-29T15:36:30.802Z,10.00
2023-01-29T15:39:43.851Z,8.40
2023-01-29T15:42:48.836Z,12.20
2023-01-29T15:45:53.922Z,10.70
2023-01-29T15:48:59.892Z,12.30
2023-01-29T15:52:07.224Z,9.50
2023-01-29T15:55:23.462Z,21.60
2023-01-29T15:58:32.419Z,20.50
2023-01-29T16:01:35.655Z,34.70
2023-01-29T16:04:38.813Z,39.20
2023-01-29T16:07:42.712Z,36.40
2023-01-29T16:10:53.865Z,40.30
2023-01-29T16:13:57.643Z,45.80
2023-01-29T16:17:27.712Z,46.40
2023-01-29T16:20:45.239Z,36.90
2023-01-29T16:23:56.996Z,33.60
2023-01-29T16:27:06.515Z,30.10
2023-01-29T16:30:14.689Z,28.20
2023-01-29T16:33:18.011Z,27.20
2023-01-29T16:36:24.746Z,31.90
2023-01-29T16:39:34.999Z,26.60
2023-01-29T16:42:38.660Z,30.30
2023-01-29T16:45:41.716Z,36.10
2023-01-29T16:48:44.803Z,36.70
2023-01-29T16:51:47.860Z,58.10
2023-01-29T16:54:58.601Z,43.30
2023-01-29T16:58:13.211Z,45.90
2023-01-29T17:01:17.370Z,44.80
2023-01-29T17:04:21.221Z,18.60
2023-01-29T17:07:25.770Z,10.70
2023-01-29T17:10:31.194Z,30.20
2023-01-29T17:13:45.499Z,23.60
2023-01-29T17:17:15.715Z,35.90
2023-01-29T17:20:18.880Z,42.60
2023-01-29T17:23:22.769Z,37.10
2023-01-29T17:26:26.067Z,50.50
2023-01-29T17:29:31.555Z,61.90
2023-01-29T17:32:44.128Z,57.50
2023-01-29T17:35:51.722Z,52.00
2023-01-29T17:38:55.082Z,48.40
2023-01-29T17:41:59.299Z,56.00
2023-01-29T17:45:02.370Z,61.40
2023-01-29T17:48:11.883Z,58.40
2023-01-29T17:51:17.478Z,39.20
2023-01-29T17:54:21.791Z,54.80
2023-01-29T17:57:25.805Z,58.30
2023-01-29T18:00:30.116Z,54.50
2023-01-29T18:03:33.351Z,65.30
2023-01-29T18:06:37.208Z,51.90
2023-01-29T18:09:43.277Z,98.10
2023-01-29T18:12:46.953Z,50.50
2023-01-29T18:15:50.901Z,24.50
2023-01-29T18:18:54.049Z,30.10
2023-01-29T18:21:57.301Z,21.70
2023-01-29T18:25:00.243Z,17.00
2023-01-29T18:28:05.518Z,35.10
2023-01-29T18:31:09.789Z,28.60
2023-01-29T18:34:13.557Z,17.50
2023-01-29T18:37:17.108Z,21.10
2023-01-29T18:40:20.517Z,22.30
2023-01-29T18:43:26.234Z,23.10
2023-01-29T18:46:30.904Z,30.30
2023-01-29T18:49:34.343Z,32.70
2023-01-29T18:52:37.834Z,25.30
2023-01-29T18:55:42.404Z,18.00
2023-01-29T18:58:52.143Z,29.50
2023-01-29T19:01:58.561Z,19.10
2023-01-29T19:05:02.184Z,19.60
2023-01-29T19:08:05.966Z,12.30
2023-01-29T19:11:12.529Z,29.20
2023-01-29T19:14:15.965Z,12.10
2023-01-29T19:17:19.031Z,20.90
2023-01-29T19:20:22.557Z,26.40
2023-01-29T19:23:25.725Z,32.80
2023-01-29T19:26:29.095Z,16.50
2023-01-29T19:29:32.995Z,25.70
2023-01-29T19:32:36.065Z,37.80
2023-01-29T19:35:39.165Z,46.30
2023-01-29T19:38:42.433Z,40.80
2023-01-29T19:41:45.373Z,47.30
2023-01-29T19:44:49.152Z,42.30
2023-01-29T19:47:54.430Z,57.30
2023-01-29T19:51:10.522Z,20.30
2023-01-29T19:54:13.560Z,47.10
2023-01-29T19:57:16.443Z,53.10
2023-01-29T20:00:21.694Z,38.40
2023-01-29T20:03:25.856Z,17.00
2023-01-29T20:06:32.827Z,24.30
2023-01-29T20:09:35.797Z,32.70
2023-01-29T20:12:38.795Z,20.30
2023-01-29T20:15:49.778Z,20.90
2023-01-29T20:18:53.146Z,24.90
2023-01-29T20:21:56.340Z,16.20
2023-01-29T20:24:59.753Z,26.30
2023-01-29T20:28:03.404Z,15.20
2023-01-29T20:31:08.086Z,14.90
2023-01-29T20:34:11.377Z,17.80
2023-01-29T20:37:14.389Z,11.50
2023-01-29T20:40:18.657Z,18.20
2023-01-29T20:43:22.225Z,15.10
2023-01-29T20:46:27.483Z,7.80
2023-01-29T20:49:30.535Z,21.90
2023-01-29T20:52:33.839Z,20.50
2023-01-29T20:55:37.315Z,15.50
2023-01-29T20:58:43.946Z,14.50
2023-01-29T21:01:47.152Z,19.20
2023-01-29T21:04:50.180Z,14.00
2023-01-29T21:07:53.056Z,20.10
2023-01-29T21:10:56.271Z,9.90
2023-01-29T21:13:59.357Z,18.40
2023-01-29T21:17:02.899Z,22.40
2023-01-29T21:20:08.401Z,15.90
2023-01-29T21:23:11.920Z,24.50
2023-01-29T21:26:14.863Z,26.00
2023-01-29T21:29:17.942Z,24.40
2023-01-29T21:32:21.082Z,24.60
2023-01-29T21:35:23.974Z,27.90
2023-01-29T21:38:27.638Z,33.00
2023-01-29T21:41:50.859Z,24.10
2023-01-29T21:44:53.805Z,8.30
2023-01-29T21:47:56.821Z,27.90
2023-01-29T21:50:59.914Z,13.60
2023-01-29T21:54:03.595Z,17.80
2023-01-29T21:57:11.169Z,20.60
2023-01-29T22:00:14.578Z,19.00
2023-01-29T22:03:17.702Z,9.50
2023-01-29T22:06:20.958Z,13.10
2023-01-29T22:09:24.017Z,6.90
2023-01-29T22:12:27.568Z,9.30
2023-01-29T22:15:30.504Z,14.10
2023-01-29T22:18:34.120Z,15.30
2023-01-29T22:21:37.093Z,12.80
2023-01-29T22:24:40.142Z,10.40
2023-01-29T22:27:42.968Z,11.10
2023-01-29T22:30:46.471Z,11.60
2023-01-29T22:33:49.465Z,12.00
2023-01-29T22:36:52.896Z,9.20
2023-01-29T22:39:55.778Z,6.70
2023-01-29T22:42:58.830Z,9.10
2023-01-29T22:46:02.053Z,6.80
2023-01-29T22:49:05.242Z,12.70
2023-01-29T22:52:11.420Z,6.50
2023-01-29T22:55:14.273Z,15.10
2023-01-29T22:58:17.496Z,9.80
2023-01-29T23:01:22.097Z,17.00
2023-01-29T23:04:25.177Z,23.50
2023-01-29T23:07:28.087Z,18.60
2023-01-29T23:10:30.984Z,8.30
2023-01-29T23:13:34.035Z,8.20
2023-01-29T23:16:36.908Z,12.60
2023-01-29T23:19:39.792Z,11.40
2023-01-29T23:22:42.828Z,10.30
2023-01-29T23:26:04.424Z,12.40
2023-01-29T23:29:07.419Z,14.50
2023-01-29T23:32:11.812Z,12.00
2023-01-29T23:35:14.623Z,9.20
2023-01-29T23:38:17.537Z,5.10
2023-01-29T23:41:21.402Z,9.00
2023-01-29T23:44:24.380Z,8.30
2023-01-29T23:47:27.319Z,9.00
2023-01-29T23:50:30.122Z,6.60
2023-01-29T23:53:33.036Z,11.60
2023-01-29T23:56:35.893Z,6.20
2023-01-29T23:59:38.904Z,9.20
